createdAt,value
2018-03-20T00:02:19.212Z,100602
2018-03-20T00:04:47.368Z,100601
2018-03-20T00:07:15.513Z,100604
2018-03-20T00:09:43.674Z,100604
2018-03-20T00:12:12.573Z,100605
2018-03-20T00:14:40.741Z,100600
2018-03-20T00:17:09.655Z,100601
2018-03-20T00:19:37.802Z,100598
2018-03-20T00:22:06.746Z,100595
2018-03-20T00:24:34.906Z,100596
2018-03-20T00:27:03.050Z,100599
2018-03-20T00:29:31.229Z,100602
2018-03-20T00:31:59.418Z,100599
2018-03-20T00:34:27.569Z,100597
2018-03-20T00:36:55.730Z,100594
2018-03-20T00:39:24.649Z,100592
2018-03-20T00:41:52.823Z,100588
2018-03-20T00:44:20.975Z,100577
2018-03-20T00:46:49.112Z,100586
2018-03-20T00:49:17.281Z,100574
2018-03-20T00:51:45.517Z,100575
2018-03-20T00:54:13.667Z,100580
2018-03-20T00:56:41.832Z,100561
2018-03-20T00:59:10.748Z,100569
2018-03-20T01:01:38.912Z,100569
2018-03-20T01:04:07.061Z,100574
2018-03-20T01:06:35.998Z,100566
2018-03-20T01:09:04.146Z,100566
2018-03-20T01:11:33.111Z,100565
2018-03-20T01:14:02.058Z,100564
2018-03-20T01:16:30.207Z,100558
2018-03-20T01:18:58.570Z,100560
2018-03-20T01:21:27.594Z,100563
2018-03-20T01:23:55.774Z,100559
2018-03-20T01:26:23.930Z,100552
2018-03-20T01:28:52.110Z,100549
2018-03-20T01:31:20.260Z,100543
2018-03-20T01:33:48.402Z,100554
2018-03-20T01:36:17.330Z,100542
2018-03-20T01:38:45.477Z,100558
2018-03-20T01:41:14.416Z,100547
2018-03-20T01:43:43.299Z,100543
2018-03-20T01:46:11.580Z,100539
2018-03-20T01:48:39.747Z,100530
2018-03-20T01:51:07.910Z,100531
2018-03-20T01:53:36.083Z,100525
2018-03-20T01:56:04.225Z,100522
2018-03-20T01:58:33.150Z,100517
2018-03-20T02:01:01.326Z,100519
2018-03-20T02:03:29.469Z,100516
2018-03-20T02:05:57.616Z,100514
2018-03-20T02:08:25.791Z,100524
2018-03-20T02:10:54.730Z,100498
2018-03-20T02:13:22.970Z,100491
2018-03-20T02:15:51.878Z,100497
2018-03-20T02:18:20.052Z,100488
2018-03-20T02:20:48.202Z,100488
2018-03-20T02:23:17.522Z,100490
2018-03-20T02:25:45.681Z,100489
2018-03-20T02:28:14.610Z,100486
2018-03-20T02:30:42.772Z,100491
2018-03-20T02:33:10.917Z,100490
2018-03-20T02:35:39.826Z,100482
2018-03-20T02:38:08.002Z,100487
2018-03-20T02:40:36.155Z,100491
2018-03-20T02:43:04.418Z,100493
2018-03-20T02:45:33.355Z,100484
2018-03-20T02:48:01.514Z,100478
2018-03-20T02:50:29.687Z,100473
2018-03-20T02:52:57.839Z,100482
2018-03-20T02:55:25.989Z,100477
2018-03-20T02:57:54.921Z,100475
2018-03-20T03:00:23.092Z,100475
2018-03-20T03:02:51.672Z,100466
2018-03-20T03:05:20.602Z,100460
2018-03-20T03:07:48.777Z,100456
2018-03-20T03:10:16.922Z,100461
2018-03-20T03:12:45.109Z,100463
2018-03-20T03:15:13.386Z,100464
2018-03-20T03:17:41.531Z,100477
2018-03-20T03:20:09.673Z,100465
2018-03-20T03:22:38.594Z,100448
2018-03-20T03:25:06.762Z,100444
2018-03-20T03:27:34.914Z,100446
2018-03-20T03:30:03.824Z,100452
2018-03-20T03:32:32.022Z,100448
2018-03-20T03:35:00.162Z,100437
2018-03-20T03:37:28.312Z,100440
2018-03-20T03:39:57.244Z,100434
2018-03-20T03:42:25.390Z,100436
2018-03-20T03:44:54.329Z,100433
2018-03-20T03:47:22.684Z,100439
2018-03-20T03:49:50.860Z,100445
2018-03-20T03:52:19.025Z,100448
2018-03-20T03:54:47.184Z,100445
2018-03-20T03:57:15.362Z,100456
2018-03-20T03:59:43.513Z,100454
2018-03-20T04:02:12.423Z,100469
2018-03-20T04:04:40.577Z,100482
2018-03-20T04:07:09.503Z,100482
2018-03-20T04:09:37.658Z,100493
2018-03-20T04:12:05.811Z,100487
2018-03-20T04:14:34.735Z,100477
2018-03-20T04:17:02.915Z,100494
2018-03-20T04:19:31.055Z,100485
2018-03-20T04:21:59.202Z,100490
2018-03-20T04:24:27.373Z,100483
2018-03-20T04:26:55.516Z,100487
2018-03-20T04:29:23.677Z,100496
2018-03-20T04:31:51.887Z,100495
2018-03-20T04:34:20.029Z,100493
2018-03-20T04:36:48.203Z,100490
2018-03-20T04:39:16.351Z,100491
2018-03-20T04:41:44.492Z,100495
2018-03-20T04:44:13.420Z,100487
2018-03-20T04:46:41.559Z,100485
2018-03-20T04:49:09.734Z,100477
2018-03-20T04:51:38.645Z,100477
2018-03-20T04:54:06.838Z,100479
2018-03-20T04:56:34.998Z,100479
2018-03-20T04:59:03.148Z,100481
2018-03-20T05:01:32.082Z,100476
2018-03-20T05:04:00.226Z,100469
2018-03-20T05:06:28.372Z,100481
2018-03-20T05:08:57.410Z,100461
2018-03-20T05:11:25.551Z,100473
2018-03-20T05:13:54.467Z,100471
2018-03-20T05:16:22.623Z,100466
2018-03-20T05:19:08.639Z,100473
2018-03-20T05:24:43.034Z,100456
2018-03-20T05:27:11.957Z,100460
2018-03-20T05:29:40.098Z,100457
2018-03-20T05:32:09.026Z,100456
2018-03-20T05:34:37.187Z,100465
2018-03-20T05:37:05.351Z,100456
2018-03-20T05:39:33.517Z,100462
2018-03-20T05:42:01.700Z,100458
2018-03-20T05:44:29.846Z,100454
2018-03-20T05:47:16.471Z,100452
2018-03-20T05:49:51.199Z,100456
2018-03-20T05:52:19.370Z,100447
2018-03-20T05:54:47.515Z,100451
2018-03-20T05:57:15.656Z,100450
2018-03-20T05:59:43.831Z,100455
2018-03-20T06:02:12.026Z,100452
2018-03-20T06:04:40.185Z,100456
2018-03-20T06:07:08.354Z,100459
2018-03-20T06:09:36.510Z,100464
2018-03-20T06:12:04.657Z,100467
2018-03-20T06:14:32.817Z,100463
2018-03-20T06:17:01.727Z,100469
2018-03-20T06:19:30.397Z,100483
2018-03-20T06:21:58.619Z,100476
2018-03-20T06:24:26.765Z,100489
2018-03-20T06:26:54.905Z,100473
2018-03-20T06:29:23.854Z,100487
2018-03-20T06:31:52.001Z,100492
2018-03-20T06:34:20.190Z,100476
2018-03-20T06:36:48.358Z,100496
2018-03-20T06:39:16.494Z,100486
2018-03-20T06:41:45.408Z,100483
2018-03-20T06:44:13.582Z,100482
2018-03-20T06:46:41.717Z,100481
2018-03-20T06:49:10.649Z,100476
2018-03-20T06:51:38.795Z,100482
2018-03-20T06:54:06.952Z,100467
2018-03-20T06:56:35.142Z,100478
2018-03-20T06:59:03.298Z,100479
2018-03-20T07:01:32.530Z,100485
2018-03-20T07:04:00.713Z,100495
2018-03-20T07:06:28.854Z,100498
2018-03-20T07:08:57.770Z,100495
2018-03-20T07:11:25.930Z,100485
2018-03-20T07:13:54.067Z,100491
2018-03-20T07:16:22.209Z,100502
2018-03-20T07:18:50.386Z,100499
2018-03-20T07:21:18.538Z,100494
2018-03-20T07:23:46.708Z,100504
2018-03-20T07:26:14.837Z,100510
2018-03-20T07:28:43.736Z,100519
2018-03-20T07:31:12.666Z,100515
2018-03-20T07:33:40.794Z,100518
2018-03-20T07:36:09.749Z,100524
2018-03-20T07:38:37.905Z,100528
2018-03-20T07:41:06.067Z,100535
2018-03-20T07:43:34.198Z,100536
2018-03-20T07:46:03.126Z,100529
2018-03-20T07:48:31.296Z,100539
2018-03-20T07:50:59.436Z,100547
2018-03-20T07:53:28.371Z,100537
2018-03-20T07:55:56.506Z,100545
2018-03-20T07:58:25.418Z,100553
2018-03-20T08:00:53.605Z,100562
2018-03-20T08:03:21.737Z,100556
2018-03-20T08:05:50.701Z,100562
2018-03-20T08:08:18.838Z,100563
2018-03-20T08:10:47.644Z,100574
2018-03-20T08:13:15.783Z,100577
2018-03-20T08:15:43.919Z,100573
2018-03-20T08:18:12.073Z,100565
2018-03-20T08:20:40.211Z,100580
2018-03-20T08:23:08.342Z,100565
2018-03-20T08:25:37.258Z,100586
2018-03-20T08:28:05.421Z,100588
2018-03-20T08:30:33.558Z,100593
2018-03-20T08:33:01.687Z,100596
2018-03-20T08:35:29.855Z,100603
2018-03-20T08:37:57.986Z,100606
2018-03-20T08:40:26.126Z,100604
2018-03-20T08:42:54.280Z,100606
2018-03-20T08:45:22.414Z,100608
2018-03-20T08:47:51.325Z,100615
2018-03-20T08:50:19.502Z,100624
2018-03-20T08:52:48.164Z,100623
2018-03-20T08:55:17.090Z,100631
2018-03-20T08:57:45.413Z,100634
2018-03-20T09:00:14.434Z,100636
2018-03-20T09:02:42.599Z,100635
2018-03-20T09:05:11.704Z,100643
2018-03-20T09:07:39.986Z,100652
2018-03-20T09:10:08.121Z,100644
2018-03-20T09:12:37.078Z,100648
2018-03-20T09:15:05.229Z,100648
2018-03-20T09:17:33.384Z,100650
2018-03-20T09:20:01.533Z,100666
2018-03-20T09:22:29.670Z,100666
2018-03-20T09:24:57.846Z,100673
2018-03-20T09:27:25.982Z,100678
2018-03-20T09:29:54.858Z,100679
2018-03-20T09:32:24.249Z,100675
2018-03-20T09:34:53.200Z,100682
2018-03-20T09:37:21.334Z,100693
2018-03-20T09:39:49.465Z,100693
2018-03-20T09:42:17.644Z,100688
2018-03-20T09:44:45.777Z,100703
2018-03-20T09:47:13.906Z,100707
2018-03-20T09:49:42.830Z,100716
2018-03-20T09:52:11.007Z,100711
2018-03-20T09:54:39.195Z,100721
2018-03-20T09:57:07.346Z,100720
2018-03-20T09:59:35.494Z,100725
2018-03-20T10:02:04.910Z,100728
2018-03-20T10:04:33.089Z,100725
2018-03-20T10:07:01.275Z,100732
2018-03-20T10:09:29.460Z,100732
2018-03-20T10:11:57.610Z,100734
2018-03-20T10:14:26.094Z,100745
2018-03-20T10:16:54.254Z,100734
2018-03-20T10:19:22.404Z,100736
2018-03-20T10:21:51.315Z,100741
2018-03-20T10:24:19.482Z,100747
2018-03-20T10:26:47.682Z,100753
2018-03-20T10:29:15.874Z,100746
2018-03-20T10:31:44.216Z,100746
2018-03-20T10:34:12.367Z,100752
2018-03-20T10:36:41.279Z,100755
2018-03-20T10:39:09.438Z,100757
2018-03-20T10:41:37.582Z,100771
2018-03-20T10:44:05.730Z,100773
2018-03-20T10:46:33.905Z,100778
2018-03-20T10:49:02.119Z,100779
2018-03-20T10:51:30.234Z,100791
2018-03-20T10:53:58.662Z,100792
2018-03-20T10:56:27.609Z,100792
2018-03-20T10:58:55.754Z,100785
2018-03-20T11:01:29.569Z,100797
2018-03-20T11:03:57.726Z,100807
2018-03-20T11:06:25.920Z,100807
2018-03-20T11:08:54.429Z,100813
2018-03-20T11:11:22.563Z,100820
2018-03-20T11:13:50.723Z,100832
2018-03-20T11:16:18.883Z,100830
2018-03-20T11:18:47.790Z,100827
2018-03-20T11:21:15.947Z,100839
2018-03-20T11:23:45.274Z,100855
2018-03-20T11:26:13.414Z,100854
2018-03-20T11:28:42.355Z,100849
2018-03-20T11:31:10.513Z,100856
2018-03-20T11:33:38.695Z,100862
2018-03-20T11:36:06.866Z,100872
2018-03-20T11:38:35.010Z,100869
2018-03-20T11:41:03.896Z,100877
2018-03-20T11:43:32.833Z,100878
2018-03-20T11:46:01.126Z,100867
2018-03-20T11:48:29.273Z,100878
2018-03-20T11:50:57.419Z,100868
2018-03-20T11:53:26.034Z,100882
2018-03-20T11:55:54.213Z,100885
2018-03-20T11:58:22.423Z,100890
2018-03-20T12:00:51.794Z,100894
2018-03-20T12:03:19.974Z,100901
2018-03-20T12:05:48.134Z,100908
2018-03-20T12:08:34.266Z,100906
2018-03-20T12:11:03.202Z,100908
2018-03-20T12:13:31.368Z,100913
2018-03-20T12:15:59.554Z,100912
2018-03-20T12:18:27.921Z,100922
2018-03-20T12:20:56.074Z,100919
2018-03-20T12:23:24.213Z,100925
2018-03-20T12:25:52.854Z,100931
2018-03-20T12:28:21.030Z,100938
2018-03-20T12:30:49.235Z,100933
2018-03-20T12:33:17.374Z,100941
2018-03-20T12:35:45.518Z,100941
2018-03-20T12:38:13.665Z,100945
2018-03-20T12:40:42.582Z,100959
2018-03-20T12:43:10.734Z,100958
2018-03-20T12:45:39.659Z,100968
2018-03-20T12:48:07.792Z,100961
2018-03-20T12:50:36.690Z,100963
2018-03-20T12:53:05.602Z,100966
2018-03-20T12:55:33.769Z,100965
2018-03-20T12:58:01.966Z,100966
2018-03-20T13:00:30.110Z,100959
2018-03-20T13:02:58.282Z,100962
2018-03-20T13:05:27.218Z,100960
2018-03-20T13:07:55.420Z,100959
2018-03-20T13:10:23.543Z,100965
2018-03-20T13:12:51.724Z,100966
2018-03-20T13:15:19.866Z,100965
2018-03-20T13:17:48.010Z,100974
2018-03-20T13:20:16.234Z,100978
2018-03-20T13:22:44.378Z,100967
2018-03-20T13:25:12.524Z,100974
2018-03-20T13:27:40.691Z,100971
2018-03-20T13:30:08.832Z,100979
2018-03-20T13:32:36.970Z,100985
2018-03-20T13:35:05.138Z,100979
2018-03-20T13:37:33.312Z,100978
2018-03-20T13:40:02.482Z,100984
2018-03-20T13:42:30.643Z,100997
2018-03-20T13:44:58.800Z,100993
2018-03-20T13:47:26.933Z,101000
2018-03-20T13:49:55.130Z,100997
2018-03-20T13:52:23.282Z,101012
2018-03-20T13:54:51.461Z,101016
2018-03-20T13:57:19.612Z,101012
2018-03-20T13:59:48.522Z,101021
2018-03-20T14:02:16.699Z,101024
2018-03-20T14:04:44.903Z,101031
2018-03-20T14:07:13.052Z,101027
2018-03-20T14:09:41.232Z,101041
2018-03-20T14:12:10.199Z,101050
2018-03-20T14:14:38.389Z,101050
2018-03-20T14:17:06.521Z,101062
2018-03-20T14:19:35.447Z,101059
2018-03-20T14:22:03.588Z,101067
2018-03-20T14:24:32.491Z,101065
2018-03-20T14:27:01.418Z,101074
2018-03-20T14:29:29.550Z,101075
2018-03-20T14:31:58.485Z,101079
2018-03-20T14:34:26.633Z,101080
2018-03-20T14:36:54.826Z,101070
2018-03-20T14:39:22.999Z,101085
2018-03-20T14:41:51.147Z,101086
2018-03-20T14:44:19.301Z,101089
2018-03-20T14:46:47.462Z,101100
2018-03-20T14:49:16.374Z,101093
2018-03-20T14:51:44.530Z,101099
2018-03-20T14:54:13.558Z,101103
2018-03-20T14:56:41.691Z,101106
2018-03-20T14:59:10.155Z,101103
2018-03-20T15:01:38.301Z,101116
2018-03-20T15:04:06.499Z,101113
2018-03-20T15:06:34.647Z,101124
2018-03-20T15:09:02.796Z,101120
2018-03-20T15:11:30.946Z,101128
2018-03-20T15:13:59.865Z,101124
2018-03-20T15:16:28.043Z,101129
2018-03-20T15:18:56.177Z,101135
2018-03-20T15:21:25.142Z,101145
2018-03-20T15:23:53.275Z,101149
2018-03-20T15:26:21.407Z,101156
2018-03-20T15:28:50.336Z,101161
2018-03-20T15:31:18.469Z,101169
2018-03-20T15:33:47.386Z,101172
2018-03-20T15:36:15.565Z,101176
2018-03-20T15:38:43.888Z,101173
2018-03-20T15:41:12.031Z,101179
2018-03-20T15:43:40.186Z,101180
2018-03-20T15:46:08.345Z,101194
2018-03-20T15:48:36.528Z,101197
2018-03-20T15:51:04.662Z,101193
2018-03-20T15:53:32.973Z,101214
2018-03-20T15:56:01.418Z,101209
2018-03-20T15:58:29.967Z,101213
2018-03-20T16:00:58.141Z,101217
2018-03-20T16:03:26.306Z,101216
2018-03-20T16:05:54.467Z,101231
2018-03-20T16:08:22.650Z,101234
2018-03-20T16:10:50.798Z,101243
2018-03-20T16:13:18.942Z,101251
2018-03-20T16:15:48.170Z,101256
2018-03-20T16:18:16.352Z,101256
2018-03-20T16:20:45.064Z,101257
2018-03-20T16:23:13.204Z,101259
2018-03-20T16:25:41.372Z,101274
2018-03-20T16:28:09.529Z,101280
2018-03-20T16:30:38.439Z,101286
2018-03-20T16:33:06.641Z,101274
2018-03-20T16:35:34.783Z,101296
2018-03-20T16:38:02.978Z,101304
2018-03-20T16:40:31.129Z,101306
2018-03-20T16:42:59.306Z,101315
2018-03-20T16:45:27.451Z,101317
2018-03-20T16:47:56.378Z,101320
2018-03-20T16:50:24.555Z,101331
2018-03-20T16:52:52.701Z,101331
2018-03-20T16:55:20.837Z,101336
2018-03-20T16:57:49.011Z,101342
2018-03-20T17:00:17.940Z,101352
2018-03-20T17:02:46.794Z,101371
2018-03-20T17:05:14.950Z,101360
2018-03-20T17:07:43.090Z,101375
2018-03-20T17:10:11.264Z,101383
2018-03-20T17:12:39.406Z,101378
2018-03-20T17:15:08.302Z,101399
2018-03-20T17:17:36.461Z,101391
2018-03-20T17:20:05.357Z,101395
2018-03-20T17:22:34.263Z,101396
2018-03-20T17:25:02.418Z,101407
2018-03-20T17:27:31.341Z,101403
2018-03-20T17:29:59.473Z,101418
2018-03-20T17:32:28.402Z,101421
2018-03-20T17:34:56.534Z,101422
2018-03-20T17:37:24.683Z,101436
2018-03-20T17:39:52.929Z,101439
2018-03-20T17:42:21.799Z,101430
2018-03-20T17:44:49.998Z,101451
2018-03-20T17:47:18.160Z,101445
2018-03-20T17:49:46.290Z,101450
2018-03-20T17:52:15.188Z,101460
2018-03-20T17:54:44.155Z,101469
2018-03-20T17:57:12.386Z,101467
2018-03-20T17:59:40.544Z,101468
2018-03-20T18:02:08.702Z,101468
2018-03-20T18:04:37.607Z,101472
2018-03-20T18:07:06.057Z,101474
2018-03-20T18:09:34.987Z,101487
2018-03-20T18:12:03.125Z,101492
2018-03-20T18:14:32.042Z,101501
2018-03-20T18:17:00.211Z,101501
2018-03-20T18:19:28.338Z,101509
2018-03-20T18:21:57.072Z,101516
2018-03-20T18:24:25.297Z,101514
2018-03-20T18:26:53.395Z,101529
2018-03-20T18:29:22.296Z,101537
2018-03-20T18:31:50.466Z,101530
2018-03-20T18:34:18.606Z,101546
2018-03-20T18:36:46.734Z,101550
2018-03-20T18:39:14.890Z,101548
2018-03-20T18:41:43.083Z,101552
2018-03-20T18:44:11.231Z,101552
2018-03-20T18:46:39.390Z,101552
2018-03-20T18:49:08.287Z,101564
2018-03-20T18:51:37.196Z,101569
2018-03-20T18:54:05.363Z,101569
2018-03-20T18:56:33.502Z,101569
2018-03-20T18:59:01.629Z,101581
2018-03-20T19:01:29.806Z,101580
2018-03-20T19:03:57.938Z,101585
2018-03-20T19:06:26.842Z,101587
2018-03-20T19:08:54.998Z,101598
2018-03-20T19:11:23.921Z,101598
2018-03-20T19:13:52.533Z,101596
2018-03-20T19:16:20.696Z,101605
2018-03-20T19:18:48.830Z,101609
2018-03-20T19:21:16.976Z,101618
2018-03-20T19:23:45.930Z,101624
2018-03-20T19:26:14.070Z,101619
2018-03-20T19:28:42.212Z,101629
2018-03-20T19:31:11.150Z,101633
2018-03-20T19:33:39.296Z,101631
2018-03-20T19:36:07.481Z,101649
2018-03-20T19:38:35.622Z,101638
2018-03-20T19:41:04.564Z,101644
2018-03-20T19:43:32.724Z,101656
2018-03-20T19:46:00.865Z,101662
2018-03-20T19:48:29.776Z,101669
2018-03-20T19:50:57.955Z,101672
2018-03-20T19:53:26.096Z,101670
2018-03-20T19:55:55.018Z,101684
2018-03-20T19:58:23.188Z,101692
2018-03-20T20:00:51.349Z,101695
2018-03-20T20:03:19.853Z,101689
2018-03-20T20:05:48.045Z,101692
2018-03-20T20:08:16.188Z,101687
2018-03-20T20:10:44.335Z,101705
2018-03-20T20:13:13.287Z,101710
2018-03-20T20:15:41.435Z,101711
2018-03-20T20:18:09.814Z,101719
2018-03-20T20:20:37.997Z,101725
2018-03-20T20:23:06.330Z,101720
2018-03-20T20:25:35.275Z,101722
2018-03-20T20:28:03.558Z,101734
2018-03-20T20:30:31.980Z,101736
2018-03-20T20:33:00.125Z,101746
2018-03-20T20:35:29.159Z,101743
2018-03-20T20:37:57.310Z,101743
2018-03-20T20:40:26.256Z,101755
2018-03-20T20:42:54.404Z,101762
2018-03-20T20:45:22.555Z,101754
2018-03-20T20:47:50.729Z,101763
2018-03-20T20:50:18.868Z,101766
2018-03-20T20:52:47.015Z,101766
2018-03-20T20:55:15.861Z,101770
2018-03-20T20:57:44.374Z,101757
2018-03-20T21:00:13.358Z,101764
2018-03-20T21:02:41.544Z,101780
2018-03-20T21:05:09.692Z,101774
2018-03-20T21:07:37.836Z,101776
2018-03-20T21:10:06.762Z,101785
2018-03-20T21:12:34.955Z,101791
2018-03-20T21:15:03.148Z,101786
2018-03-20T21:17:31.295Z,101790
2018-03-20T21:19:59.458Z,101787
2018-03-20T21:22:27.599Z,101783
2018-03-20T21:24:55.739Z,101797
2018-03-20T21:27:23.902Z,101786
2018-03-20T21:29:52.030Z,101791
2018-03-20T21:32:20.166Z,101810
2018-03-20T21:34:49.127Z,101802
2018-03-20T21:37:17.297Z,101808
2018-03-20T21:39:45.426Z,101800
2018-03-20T21:42:14.325Z,101812
2018-03-20T21:44:42.479Z,101800
2018-03-20T21:47:11.409Z,101813
2018-03-20T21:49:39.542Z,101804
2018-03-20T21:52:08.480Z,101818
2018-03-20T21:54:36.622Z,101812
2018-03-20T21:57:04.816Z,101820
2018-03-20T21:59:32.961Z,101827
2018-03-20T22:02:01.222Z,101830
2018-03-20T22:04:29.354Z,101830
2018-03-20T22:06:57.490Z,101827
2018-03-20T22:09:25.668Z,101831
2018-03-20T22:11:53.810Z,101830
2018-03-20T22:14:22.710Z,101836
2018-03-20T22:16:51.637Z,101844
2018-03-20T22:19:19.806Z,101841
2018-03-20T22:21:47.935Z,101835
2018-03-20T22:24:16.882Z,101848
2018-03-20T22:26:45.048Z,101847
2018-03-20T22:29:13.182Z,101844
2018-03-20T22:31:42.122Z,101856
2018-03-20T22:34:10.267Z,101860
2018-03-20T22:36:38.404Z,101861
2018-03-20T22:39:07.342Z,101858
2018-03-20T22:41:35.507Z,101852
2018-03-20T22:44:03.622Z,101864
2018-03-20T22:46:31.790Z,101858
2018-03-20T22:48:59.927Z,101864
2018-03-20T22:51:28.059Z,101864
2018-03-20T22:53:57.089Z,101864
2018-03-20T22:56:25.386Z,101862
2018-03-20T22:58:53.518Z,101877
2018-03-20T23:01:21.710Z,101869
2018-03-20T23:03:50.263Z,101880
2018-03-20T23:06:19.224Z,101872
2018-03-20T23:08:47.355Z,101874
2018-03-20T23:11:15.490Z,101871
2018-03-20T23:13:44.430Z,101869
2018-03-20T23:16:12.561Z,101872
2018-03-20T23:18:41.465Z,101870
2018-03-20T23:21:09.634Z,101881
2018-03-20T23:23:37.998Z,101876
2018-03-20T23:26:06.906Z,101878
2018-03-20T23:28:35.108Z,101870
2018-03-20T23:31:03.259Z,101874
2018-03-20T23:33:31.613Z,101884
2018-03-20T23:36:00.547Z,101873
2018-03-20T23:38:28.717Z,101873
2018-03-20T23:40:56.866Z,101879
2018-03-20T23:43:24.994Z,101876
2018-03-20T23:45:53.170Z,101875
2018-03-20T23:48:21.308Z,101882
2018-03-20T23:50:49.457Z,101883
2018-03-20T23:53:17.626Z,101891
2018-03-20T23:55:45.756Z,101891
2018-03-20T23:58:14.417Z,101895
